Time;durP1;ratioP1;P1;durP2;ratioP2;P2;SDS_P1;SDS_P2;PMS_P1;PMS_P2;Temp;Humidity;BMP_temperature;BMP_pressure;BME280_temperature;BME280_humidity;BME280_pressure;Samples;Min_cycle;Max_cycle;Signal;HPM_P1;HPM_P2
2021/09/18 00:00:22;;;;;;;5.23;2.90;;;;;;;;;;5069787;28;20094;-62
2021/09/18 00:02:49;;;;;;;7.03;3.20;;;;;;;;;;5068344;28;20029;-62
2021/09/18 00:05:16;;;;;;;5.70;3.03;;;;;;;;;;5068353;28;20028;-62
2021/09/18 00:07:42;;;;;;;6.00;2.87;;;;;;;;;;5068194;28;20056;-62
2021/09/18 00:10:09;;;;;;;5.03;2.57;;;;;;;;;;5055110;28;20017;-63
2021/09/18 00:12:36;;;;;;;3.83;2.10;;;;;;;;;;5073049;28;20115;-62
2021/09/18 00:15:03;;;;;;;3.87;2.03;;;;;;;;;;5073052;28;20436;-63
2021/09/18 00:17:30;;;;;;;3.87;2.40;;;;;;;;;;5072713;28;20433;-62
2021/09/18 00:19:58;;;;;;;3.97;1.73;;;;;;;;;;5072763;28;20475;-63
2021/09/18 00:22:25;;;;;;;5.63;2.30;;;;;;;;;;5069161;28;20040;-62
2021/09/18 00:24:52;;;;;;;3.97;2.10;;;;;;;;;;5058097;28;20379;-62
2021/09/18 00:27:19;;;;;;;3.50;1.93;;;;;;;;;;5056671;28;20032;-62
2021/09/18 00:29:46;;;;;;;8.10;2.10;;;;;;;;;;5055457;28;20054;-63
2021/09/18 00:32:12;;;;;;;4.10;2.40;;;;;;;;;;5065357;28;20035;-61
2021/09/18 00:34:39;;;;;;;6.03;2.63;;;;;;;;;;5072849;28;20035;-62
2021/09/18 00:37:06;;;;;;;5.13;2.40;;;;;;;;;;5072860;28;20131;-61
2021/09/18 00:39:33;;;;;;;10.77;2.63;;;;;;;;;;5072669;28;20036;-61
2021/09/18 00:41:59;;;;;;;5.27;2.00;;;;;;;;;;5072134;28;20028;-62
2021/09/18 00:44:28;;;;;;;6.97;2.40;;;;;;;;;;5070576;28;20479;-62
2021/09/18 00:46:55;;;;;;;3.97;2.10;;;;;;;;;;5067517;28;20113;-61
2021/09/18 00:49:22;;;;;;;5.97;2.20;;;;;;;;;;5067750;28;20086;-62
2021/09/18 00:51:49;;;;;;;5.43;2.70;;;;;;;;;;5067661;28;20375;-61
2021/09/18 00:54:16;;;;;;;4.43;2.40;;;;;;;;;;5068549;28;20031;-61
2021/09/18 00:56:43;;;;;;;4.83;2.50;;;;;;;;;;5072608;28;20090;-61
2021/09/18 00:59:10;;;;;;;5.80;2.13;;;;;;;;;;5072030;28;20028;-60
2021/09/18 01:01:37;;;;;;;3.23;1.80;;;;;;;;;;5072540;28;20063;-61
2021/09/18 01:04:04;;;;;;;4.60;2.03;;;;;;;;;;5072356;28;20139;-60
2021/09/18 01:06:31;;;;;;;6.20;2.20;;;;;;;;;;5070578;28;20139;-59
2021/09/18 01:08:59;;;;;;;4.17;2.60;;;;;;;;;;5059482;28;20021;-58
2021/09/18 01:11:26;;;;;;;12.90;7.33;;;;;;;;;;5065836;28;20030;-57
2021/09/18 01:13:53;;;;;;;7.00;4.50;;;;;;;;;;5067296;28;20047;-58
2021/09/18 01:16:20;;;;;;;6.87;3.20;;;;;;;;;;5067898;28;20028;-56
2021/09/18 01:18:47;;;;;;;4.13;2.40;;;;;;;;;;5072072;28;20040;-58
2021/09/18 01:21:14;;;;;;;4.70;2.40;;;;;;;;;;5072289;28;20062;-58
2021/09/18 01:23:41;;;;;;;3.07;1.90;;;;;;;;;;5071674;28;20371;-58
2021/09/18 01:26:08;;;;;;;2.23;1.40;;;;;;;;;;5072344;28;20027;-57
2021/09/18 01:28:36;;;;;;;3.87;1.77;;;;;;;;;;5071197;28;20103;-58
2021/09/18 01:31:03;;;;;;;3.87;1.80;;;;;;;;;;5067174;28;20353;-57
2021/09/18 01:33:29;;;;;;;2.57;1.57;;;;;;;;;;5066765;28;20041;-59
2021/09/18 01:35:56;;;;;;;2.60;1.50;;;;;;;;;;5068817;28;20013;-60
2021/09/18 01:38:23;;;;;;;5.10;1.40;;;;;;;;;;5070977;28;20150;-60
2021/09/18 01:40:50;;;;;;;4.93;1.90;;;;;;;;;;5076583;28;20532;-60
2021/09/18 01:43:17;;;;;;;3.73;2.13;;;;;;;;;;5076127;28;20353;-60
2021/09/18 01:45:44;;;;;;;3.50;1.70;;;;;;;;;;5076020;28;20035;-60
2021/09/18 01:48:12;;;;;;;1.83;1.13;;;;;;;;;;5076084;28;20099;-61
2021/09/18 01:50:46;;;;;;;6.00;1.80;;;;;;;;;;5074678;28;20024;-60
2021/09/18 01:53:14;;;;;;;2.90;1.50;;;;;;;;;;5070182;28;20044;-60
2021/09/18 01:55:41;;;;;;;3.53;1.90;;;;;;;;;;5070585;28;20483;-59
2021/09/18 01:58:08;;;;;;;3.93;1.60;;;;;;;;;;5070245;28;20028;-59
2021/09/18 02:00:41;;;;;;;3.90;2.10;;;;;;;;;;5066711;28;20025;-59
2021/09/18 02:03:08;;;;;;;2.90;1.70;;;;;;;;;;5075262;28;20027;-60
2021/09/18 02:05:35;;;;;;;3.63;1.97;;;;;;;;;;5062297;28;20491;-59
2021/09/18 02:08:02;;;;;;;5.03;2.37;;;;;;;;;;5055524;28;20502;-59
2021/09/18 02:10:30;;;;;;;3.23;1.87;;;;;;;;;;5055460;28;20021;-60
2021/09/18 02:12:57;;;;;;;2.77;1.70;;;;;;;;;;5055131;28;20108;-59
2021/09/18 02:15:25;;;;;;;5.40;1.90;;;;;;;;;;5053807;28;20024;-59
2021/09/18 02:17:52;;;;;;;5.53;2.10;;;;;;;;;;5070037;28;20498;-60
2021/09/18 02:20:20;;;;;;;5.80;2.03;;;;;;;;;;5069268;28;20070;-59
2021/09/18 02:22:47;;;;;;;4.17;2.03;;;;;;;;;;5070089;28;20024;-59
2021/09/18 02:25:15;;;;;;;4.00;2.03;;;;;;;;;;5074651;28;20036;-59
2021/09/18 02:27:42;;;;;;;6.03;2.10;;;;;;;;;;5075215;28;20032;-59
2021/09/18 02:30:11;;;;;;;5.67;2.63;;;;;;;;;;5075023;28;20033;-59
2021/09/18 02:32:37;;;;;;;5.73;2.10;;;;;;;;;;5074829;28;20024;-59
2021/09/18 02:35:08;;;;;;;4.43;2.60;;;;;;;;;;5074340;28;20036;-59
2021/09/18 02:37:35;;;;;;;5.90;2.53;;;;;;;;;;5069429;28;20028;-60
2021/09/18 02:40:03;;;;;;;6.20;2.43;;;;;;;;;;5069873;28;20024;-60
2021/09/18 02:42:30;;;;;;;10.60;2.50;;;;;;;;;;5069409;28;20081;-60
2021/09/18 02:44:57;;;;;;;4.20;2.13;;;;;;;;;;5069558;28;20017;-61
2021/09/18 02:47:24;;;;;;;8.53;2.73;;;;;;;;;;5073412;28;20029;-60
2021/09/18 02:49:51;;;;;;;5.93;2.93;;;;;;;;;;5074107;28;20059;-60
2021/09/18 02:52:17;;;;;;;4.53;2.63;;;;;;;;;;5074794;28;20033;-60
2021/09/18 02:54:44;;;;;;;3.17;1.70;;;;;;;;;;5074565;28;20115;-60
2021/09/18 02:57:11;;;;;;;8.83;2.93;;;;;;;;;;5074611;28;20020;-60
2021/09/18 02:59:38;;;;;;;3.13;1.97;;;;;;;;;;5069443;28;20020;-60
2021/09/18 03:02:04;;;;;;;6.90;2.17;;;;;;;;;;5069307;28;20024;-61
2021/09/18 03:04:32;;;;;;;6.53;2.73;;;;;;;;;;5068870;28;20017;-60
2021/09/18 03:06:59;;;;;;;3.90;2.30;;;;;;;;;;5068838;28;20033;-60
2021/09/18 03:09:25;;;;;;;8.10;3.03;;;;;;;;;;5072919;28;20464;-60
2021/09/18 03:11:52;;;;;;;3.27;2.07;;;;;;;;;;5074122;28;20021;-60
2021/09/18 03:14:19;;;;;;;4.03;2.20;;;;;;;;;;5074405;28;20033;-60
2021/09/18 03:16:46;;;;;;;6.53;2.60;;;;;;;;;;5074106;28;20035;-60
2021/09/18 03:19:12;;;;;;;5.97;2.67;;;;;;;;;;5074034;28;20070;-61
2021/09/18 03:21:39;;;;;;;7.93;3.80;;;;;;;;;;5069589;28;20357;-60
2021/09/18 03:24:06;;;;;;;7.20;3.20;;;;;;;;;;5068567;28;20025;-60
2021/09/18 03:26:33;;;;;;;5.73;2.50;;;;;;;;;;5068918;28;20467;-60
2021/09/18 03:29:00;;;;;;;3.93;2.40;;;;;;;;;;5068730;28;20607;-61
2021/09/18 03:31:27;;;;;;;6.73;2.30;;;;;;;;;;5072055;28;20086;-60
2021/09/18 03:33:53;;;;;;;7.90;3.03;;;;;;;;;;5073369;28;20060;-60
2021/09/18 03:36:20;;;;;;;7.33;2.80;;;;;;;;;;5073676;28;20486;-60
2021/09/18 03:38:47;;;;;;;7.27;3.43;;;;;;;;;;5073702;28;20548;-60
2021/09/18 03:41:14;;;;;;;5.77;2.43;;;;;;;;;;5073729;28;20089;-60
2021/09/18 03:43:40;;;;;;;8.70;2.23;;;;;;;;;;5070261;28;20154;-60
2021/09/18 03:46:07;;;;;;;7.83;2.27;;;;;;;;;;5068495;28;20434;-60
2021/09/18 03:48:34;;;;;;;4.30;1.80;;;;;;;;;;5067901;28;20250;-61
2021/09/18 03:51:01;;;;;;;4.33;1.60;;;;;;;;;;5068325;28;20077;-60
2021/09/18 03:53:28;;;;;;;7.93;2.50;;;;;;;;;;5070336;28;20048;-61
2021/09/18 03:55:55;;;;;;;3.63;1.87;;;;;;;;;;5072943;28;20032;-61
2021/09/18 03:58:22;;;;;;;3.57;1.87;;;;;;;;;;5073134;28;20399;-61
2021/09/18 04:00:49;;;;;;;5.63;1.77;;;;;;;;;;5072853;28;20025;-60
2021/09/18 04:03:16;;;;;;;9.90;2.20;;;;;;;;;;5073349;28;20028;-60
2021/09/18 04:05:42;;;;;;;6.87;2.03;;;;;;;;;;5069955;28;20036;-61
2021/09/18 04:08:10;;;;;;;4.97;2.20;;;;;;;;;;5068099;28;20021;-60
2021/09/18 04:10:37;;;;;;;4.27;2.00;;;;;;;;;;5067896;28;20024;-61
2021/09/18 04:13:04;;;;;;;4.07;1.87;;;;;;;;;;5067399;28;20028;-61
2021/09/18 04:15:31;;;;;;;4.47;2.17;;;;;;;;;;5070055;28;20096;-60
2021/09/18 04:17:59;;;;;;;5.13;2.03;;;;;;;;;;5072552;28;20086;-61
2021/09/18 04:20:26;;;;;;;6.60;2.10;;;;;;;;;;5072915;28;20040;-60
2021/09/18 04:22:53;;;;;;;8.57;2.40;;;;;;;;;;5072737;28;20055;-61
2021/09/18 04:25:19;;;;;;;4.40;1.97;;;;;;;;;;5072734;28;20032;-60
2021/09/18 04:27:46;;;;;;;3.63;1.90;;;;;;;;;;5069992;28;20039;-61
2021/09/18 04:30:14;;;;;;;7.10;2.27;;;;;;;;;;5067177;28;20020;-61
2021/09/18 04:32:40;;;;;;;5.73;2.10;;;;;;;;;;5067345;28;20111;-60
2021/09/18 04:35:07;;;;;;;4.67;1.80;;;;;;;;;;5067616;28;20028;-61
2021/09/18 04:37:34;;;;;;;4.90;2.23;;;;;;;;;;5069394;28;20020;-60
2021/09/18 04:40:01;;;;;;;3.83;1.87;;;;;;;;;;5072672;28;20024;-60
2021/09/18 04:42:28;;;;;;;3.13;1.80;;;;;;;;;;5072160;28;20052;-61
2021/09/18 04:44:54;;;;;;;4.00;1.80;;;;;;;;;;5072474;28;20032;-60
2021/09/18 04:47:21;;;;;;;7.17;1.97;;;;;;;;;;5072312;28;20099;-60
2021/09/18 04:49:48;;;;;;;3.00;1.53;;;;;;;;;;5070792;28;20025;-61
2021/09/18 04:52:15;;;;;;;3.20;1.70;;;;;;;;;;5067119;28;20028;-60
2021/09/18 04:54:41;;;;;;;4.90;1.50;;;;;;;;;;5066978;28;20039;-60
2021/09/18 04:57:08;;;;;;;3.03;1.83;;;;;;;;;;5067186;28;20023;-60
2021/09/18 04:59:35;;;;;;;3.80;1.57;;;;;;;;;;5068188;28;20502;-60
2021/09/18 05:02:02;;;;;;;3.47;2.20;;;;;;;;;;5072139;28;20085;-60
2021/09/18 05:04:28;;;;;;;4.97;1.50;;;;;;;;;;5072343;28;20032;-61
2021/09/18 05:06:55;;;;;;;3.03;1.43;;;;;;;;;;5072529;28;20024;-60
2021/09/18 05:09:22;;;;;;;4.90;1.53;;;;;;;;;;5071961;28;20029;-60
2021/09/18 05:11:48;;;;;;;3.07;1.53;;;;;;;;;;5070818;28;20020;-60
2021/09/18 05:14:17;;;;;;;2.20;1.40;;;;;;;;;;5066998;28;20029;-60
2021/09/18 05:16:44;;;;;;;3.33;1.63;;;;;;;;;;5066812;28;20032;-61
2021/09/18 05:19:10;;;;;;;2.63;1.33;;;;;;;;;;5066832;28;20056;-61
2021/09/18 05:21:39;;;;;;;2.93;1.50;;;;;;;;;;5067277;28;20483;-60
2021/09/18 05:24:06;;;;;;;4.17;1.60;;;;;;;;;;5051951;28;20033;-61
2021/09/18 05:26:33;;;;;;;5.37;1.60;;;;;;;;;;5051869;28;20022;-61
2021/09/18 05:28:59;;;;;;;3.87;1.50;;;;;;;;;;5052048;28;20075;-61
2021/09/18 05:31:26;;;;;;;4.90;1.43;;;;;;;;;;5052162;28;20017;-61
2021/09/18 05:33:53;;;;;;;11.47;2.60;;;;;;;;;;5050924;28;20033;-61
2021/09/18 05:36:21;;;;;;;7.57;1.80;;;;;;;;;;5052339;28;20779;-61
2021/09/18 05:38:48;;;;;;;3.50;1.77;;;;;;;;;;5066798;28;20074;-61
2021/09/18 05:41:15;;;;;;;3.47;1.90;;;;;;;;;;5066813;28;20024;-61
2021/09/18 05:43:42;;;;;;;2.93;1.77;;;;;;;;;;5066713;28;20479;-62
2021/09/18 05:46:08;;;;;;;7.37;2.70;;;;;;;;;;5072010;28;20028;-61
2021/09/18 05:48:35;;;;;;;7.10;2.83;;;;;;;;;;5071872;28;20032;-61
2021/09/18 05:51:02;;;;;;;3.50;1.70;;;;;;;;;;5071556;28;20365;-62
2021/09/18 05:53:29;;;;;;;4.07;2.10;;;;;;;;;;5071481;28;20033;-61
2021/09/18 05:55:55;;;;;;;9.20;1.90;;;;;;;;;;5071678;28;20021;-62
2021/09/18 05:58:22;;;;;;;7.10;2.20;;;;;;;;;;5066706;28;20373;-61
2021/09/18 06:00:49;;;;;;;5.70;1.83;;;;;;;;;;5066599;28;20462;-61
2021/09/18 06:03:16;;;;;;;4.23;1.70;;;;;;;;;;5066109;28;20043;-61
2021/09/18 06:05:42;;;;;;;5.83;1.73;;;;;;;;;;5066690;28;20040;-61
2021/09/18 06:08:09;;;;;;;5.23;1.90;;;;;;;;;;5071187;28;20021;-61
2021/09/18 06:10:36;;;;;;;3.90;1.67;;;;;;;;;;5071540;28;20083;-61
2021/09/18 06:13:03;;;;;;;5.20;1.73;;;;;;;;;;5071521;28;20118;-61
2021/09/18 06:15:29;;;;;;;3.67;1.80;;;;;;;;;;5071230;28;20357;-61
2021/09/18 06:17:56;;;;;;;2.87;1.67;;;;;;;;;;5071511;28;20020;-61
2021/09/18 06:20:23;;;;;;;6.10;1.87;;;;;;;;;;5066468;28;20034;-60
2021/09/18 06:22:50;;;;;;;4.67;2.03;;;;;;;;;;5067820;28;20491;-61
2021/09/18 06:25:17;;;;;;;9.43;3.43;;;;;;;;;;5069566;28;20051;-61
2021/09/18 06:27:43;;;;;;;6.00;2.03;;;;;;;;;;5069736;28;20028;-61
2021/09/18 06:30:11;;;;;;;6.00;2.03;;;;;;;;;;5073985;28;20028;-60
2021/09/18 06:32:38;;;;;;;6.33;2.33;;;;;;;;;;5075198;28;20422;-60
2021/09/18 06:35:05;;;;;;;7.27;2.27;;;;;;;;;;5075045;28;20029;-60
2021/09/18 06:37:31;;;;;;;9.37;2.83;;;;;;;;;;5075035;28;20032;-61
2021/09/18 06:39:58;;;;;;;6.37;2.10;;;;;;;;;;5074950;28;20116;-60
2021/09/18 06:42:25;;;;;;;7.57;2.30;;;;;;;;;;5069527;28;20039;-61
2021/09/18 06:44:52;;;;;;;3.83;1.90;;;;;;;;;;5069593;28;20020;-61
2021/09/18 06:47:18;;;;;;;10.67;2.13;;;;;;;;;;5069529;28;20025;-61
2021/09/18 06:49:45;;;;;;;5.67;2.07;;;;;;;;;;5070077;28;20083;-61
2021/09/18 06:52:12;;;;;;;3.83;1.83;;;;;;;;;;5073238;28;20805;-60
2021/09/18 06:54:39;;;;;;;4.03;1.60;;;;;;;;;;5074346;28;20043;-61
2021/09/18 06:57:11;;;;;;;7.83;3.17;;;;;;;;;;5054556;28;20357;-60
2021/09/18 06:59:38;;;;;;;5.27;1.90;;;;;;;;;;5054466;28;20373;-60
2021/09/18 07:02:05;;;;;;;3.30;1.70;;;;;;;;;;5054355;28;20029;-60
2021/09/18 07:04:33;;;;;;;11.23;2.60;;;;;;;;;;5050609;28;20021;-60
2021/09/18 07:07:00;;;;;;;4.20;1.60;;;;;;;;;;5049161;28;20033;-60
2021/09/18 07:09:27;;;;;;;5.53;1.93;;;;;;;;;;5058350;28;20162;-60
2021/09/18 07:11:54;;;;;;;4.97;2.37;;;;;;;;;;5069021;28;20029;-61
2021/09/18 07:14:21;;;;;;;4.00;2.10;;;;;;;;;;5071736;28;20040;-60
2021/09/18 07:16:47;;;;;;;6.00;2.20;;;;;;;;;;5074370;28;20024;-60
2021/09/18 07:19:14;;;;;;;4.37;1.93;;;;;;;;;;5074199;28;20025;-60
2021/09/18 07:21:41;;;;;;;4.27;1.97;;;;;;;;;;5074128;28;20025;-60
2021/09/18 07:24:08;;;;;;;8.20;2.23;;;;;;;;;;5073884;28;20051;-60
2021/09/18 07:26:36;;;;;;;4.47;2.30;;;;;;;;;;5070702;28;20112;-61
2021/09/18 07:29:03;;;;;;;6.63;1.60;;;;;;;;;;5068703;28;20025;-60
2021/09/18 07:31:30;;;;;;;6.70;2.07;;;;;;;;;;5068522;28;20052;-62
2021/09/18 07:33:57;;;;;;;5.03;2.50;;;;;;;;;;5068177;28;20047;-60
2021/09/18 07:36:23;;;;;;;4.43;1.60;;;;;;;;;;5071296;28;20017;-60
2021/09/18 07:38:50;;;;;;;3.83;1.97;;;;;;;;;;5073929;28;20105;-60
2021/09/18 07:41:17;;;;;;;6.20;2.30;;;;;;;;;;5073741;28;20107;-60
2021/09/18 07:43:44;;;;;;;2.57;1.80;;;;;;;;;;5073337;28;20039;-60
2021/09/18 07:46:11;;;;;;;4.73;1.50;;;;;;;;;;5073245;28;20048;-60
2021/09/18 07:48:38;;;;;;;3.10;1.17;;;;;;;;;;5070506;28;20095;-60
2021/09/18 07:51:04;;;;;;;7.07;1.33;;;;;;;;;;5068431;28;20584;-61
2021/09/18 07:53:31;;;;;;;10.20;1.20;;;;;;;;;;5068069;28;20513;-62
2021/09/18 07:55:58;;;;;;;33.63;2.83;;;;;;;;;;5068217;28;20031;-63
2021/09/18 07:58:25;;;;;;;15.80;1.37;;;;;;;;;;5070236;28;20032;-61
2021/09/18 08:00:51;;;;;;;14.30;1.57;;;;;;;;;;5073245;28;20020;-62
2021/09/18 08:03:19;;;;;;;5.07;1.40;;;;;;;;;;5072933;28;20017;-62
2021/09/18 08:05:46;;;;;;;2.67;0.67;;;;;;;;;;5073078;28;20035;-62
2021/09/18 08:08:13;;;;;;;22.23;2.10;;;;;;;;;;5073224;28;20024;-63
2021/09/18 08:10:40;;;;;;;24.83;1.80;;;;;;;;;;5070320;28;20055;-64
2021/09/18 08:13:06;;;;;;;10.40;1.00;;;;;;;;;;5067577;28;20025;-64
2021/09/18 08:15:33;;;;;;;2.07;0.80;;;;;;;;;;5067807;28;20020;-62
2021/09/18 08:18:00;;;;;;;5.33;0.80;;;;;;;;;;5067830;28;20040;-62
2021/09/18 08:20:27;;;;;;;2.00;0.70;;;;;;;;;;5069116;28;20482;-61
2021/09/18 08:22:54;;;;;;;3.13;0.63;;;;;;;;;;5072545;28;20430;-60
2021/09/18 08:25:20;;;;;;;0.90;0.70;;;;;;;;;;5072952;28;20033;-61
2021/09/18 08:27:47;;;;;;;2.80;0.70;;;;;;;;;;5072830;28;20099;-61
2021/09/18 08:30:14;;;;;;;3.03;0.47;;;;;;;;;;5072885;28;20475;-61
2021/09/18 08:32:41;;;;;;;2.23;0.43;;;;;;;;;;5071024;28;20023;-61
2021/09/18 08:35:09;;;;;;;4.47;0.63;;;;;;;;;;5066986;28;20025;-61
2021/09/18 08:37:36;;;;;;;4.83;0.77;;;;;;;;;;5067424;28;20105;-62
2021/09/18 08:40:03;;;;;;;4.30;0.67;;;;;;;;;;5067356;28;20662;-61
2021/09/18 08:42:30;;;;;;;6.53;0.50;;;;;;;;;;5068776;28;20522;-61
2021/09/18 08:44:57;;;;;;;3.40;0.40;;;;;;;;;;5072176;28;20070;-61
2021/09/18 08:47:24;;;;;;;2.53;0.70;;;;;;;;;;5072224;28;20471;-61
2021/09/18 08:49:52;;;;;;;2.53;0.50;;;;;;;;;;5072561;28;20021;-61
2021/09/18 08:52:18;;;;;;;3.43;0.67;;;;;;;;;;5071922;28;20032;-61
2021/09/18 08:54:45;;;;;;;1.63;0.60;;;;;;;;;;5070706;28;20392;-61
2021/09/18 08:57:12;;;;;;;2.77;0.80;;;;;;;;;;5067105;28;20406;-61
2021/09/18 08:59:39;;;;;;;2.13;0.60;;;;;;;;;;5067316;28;20365;-60
2021/09/18 09:02:15;;;;;;;3.27;0.87;;;;;;;;;;5067319;28;20020;-60
2021/09/18 09:04:42;;;;;;;3.33;0.63;;;;;;;;;;5068218;28;20020;-60
2021/09/18 09:07:09;;;;;;;2.80;0.60;;;;;;;;;;5071751;28;20024;-61
2021/09/18 09:09:55;;;;;;;1.50;0.60;;;;;;;;;;5072268;28;20028;-60
2021/09/18 09:12:26;;;;;;;1.43;0.80;;;;;;;;;;5072180;28;20035;-60
2021/09/18 09:14:53;;;;;;;1.43;0.63;;;;;;;;;;5052140;28;20040;-60
2021/09/18 09:17:24;;;;;;;1.90;0.80;;;;;;;;;;5050311;28;20033;-60
2021/09/18 09:19:52;;;;;;;1.00;0.80;;;;;;;;;;5046759;28;20044;-60
2021/09/18 09:22:36;;;;;;;1.97;0.70;;;;;;;;;;5046924;28;20037;-60
2021/09/18 09:25:04;;;;;;;1.55;0.70;;;;;;;;;;5046989;28;20021;-60
2021/09/18 09:27:30;;;;;;;0.70;0.50;;;;;;;;;;5059784;28;20375;-60
2021/09/18 09:29:57;;;;;;;2.70;0.70;;;;;;;;;;5071354;28;20028;-61
2021/09/18 09:32:27;;;;;;;1.20;0.60;;;;;;;;;;5071647;28;20033;-60
2021/09/18 09:34:54;;;;;;;1.67;0.63;;;;;;;;;;5071925;28;20033;-61
2021/09/18 09:37:21;;;;;;;0.97;0.60;;;;;;;;;;5072135;28;20028;-60
2021/09/18 09:39:56;;;;;;;1.67;0.77;;;;;;;;;;5069097;28;20484;-60
2021/09/18 09:42:34;;;;;;;1.85;0.90;;;;;;;;;;5065996;28;20037;-61
2021/09/18 09:45:11;;;;;;;2.10;1.20;;;;;;;;;;5066666;28;20039;-60
2021/09/18 09:47:37;;;;;;;1.43;0.87;;;;;;;;;;5066814;28;20028;-61
2021/09/18 09:50:05;;;;;;;2.07;0.70;;;;;;;;;;5069263;28;20016;-61
2021/09/18 09:52:33;;;;;;;2.23;1.40;;;;;;;;;;5071823;28;20024;-61
2021/09/18 09:55:10;;;;;;;1.77;1.00;;;;;;;;;;5071195;28;20032;-60
2021/09/18 09:57:37;;;;;;;0.50;0.40;;;;;;;;;;5072945;28;20040;-60
2021/09/18 10:00:08;;;;;;;2.47;0.70;;;;;;;;;;5075752;28;20024;-60
2021/09/18 10:02:39;;;;;;;1.53;0.70;;;;;;;;;;5071937;28;20102;-60
2021/09/18 10:05:06;;;;;;;2.40;0.53;;;;;;;;;;5070405;28;20036;-58
2021/09/18 10:07:33;;;;;;;2.20;0.70;;;;;;;;;;5069981;28;20031;-58
2021/09/18 10:10:00;;;;;;;0.53;0.40;;;;;;;;;;5070029;28;20530;-58
2021/09/18 10:12:28;;;;;;;1.67;0.50;;;;;;;;;;5073292;28;20028;-58
2021/09/18 10:14:55;;;;;;;1.43;0.60;;;;;;;;;;5075286;28;20028;-58
2021/09/18 10:17:23;;;;;;;0.93;0.60;;;;;;;;;;5075564;28;20082;-58
2021/09/18 10:25:04;;;;;;;3.63;0.60;;;;;;;;;;5071363;28;20036;-57
2021/09/18 10:27:31;;;;;;;1.13;0.50;;;;;;;;;;5070182;28;20167;-59
2021/09/18 10:29:58;;;;;;;2.07;0.70;;;;;;;;;;5069310;28;20024;-58
2021/09/18 10:32:25;;;;;;;1.17;0.60;;;;;;;;;;5069507;28;20507;-58
2021/09/18 10:35:11;;;;;;;1.93;0.80;;;;;;;;;;5072765;28;20123;-58
2021/09/18 10:37:39;;;;;;;1.57;0.83;;;;;;;;;;5075215;28;20107;-56
2021/09/18 10:40:10;;;;;;;4.47;0.90;;;;;;;;;;5074683;28;20036;-56
2021/09/18 10:42:39;;;;;;;1.67;0.70;;;;;;;;;;5074354;28;20023;-56
2021/09/18 10:45:08;;;;;;;0.83;0.50;;;;;;;;;;5074456;28;20016;-56
2021/09/18 10:47:35;;;;;;;3.20;1.10;;;;;;;;;;5069905;28;20495;-56
2021/09/18 10:50:02;;;;;;;7.00;1.00;;;;;;;;;;5069117;28;20082;-57
2021/09/18 10:52:35;;;;;;;1.97;1.33;;;;;;;;;;5069146;28;20021;-56
2021/09/18 10:55:02;;;;;;;4.70;1.30;;;;;;;;;;5068815;28;20089;-56
2021/09/18 10:57:51;;;;;;;1.33;0.90;;;;;;;;;;5072762;28;20029;-56
2021/09/18 11:00:20;;;;;;;1.97;0.70;;;;;;;;;;5074012;28;20037;-56
2021/09/18 11:02:48;;;;;;;2.47;0.80;;;;;;;;;;5074196;28;20463;-57
2021/09/18 11:05:21;;;;;;;2.47;0.80;;;;;;;;;;5073995;28;20388;-56
2021/09/18 11:07:52;;;;;;;1.10;0.80;;;;;;;;;;5072989;28;20021;-56
2021/09/18 11:10:22;;;;;;;4.80;1.20;;;;;;;;;;5068457;28;20059;-56
2021/09/18 11:13:07;;;;;;;7.67;1.73;;;;;;;;;;5068921;28;20387;-56
2021/09/18 11:15:40;;;;;;;1.42;0.70;;;;;;;;;;5068396;28;20029;-56
2021/09/18 11:18:08;;;;;;;3.83;1.00;;;;;;;;;;5069105;28;20496;-56
2021/09/18 11:20:35;;;;;;;4.20;1.03;;;;;;;;;;5073707;28;20557;-56
2021/09/18 11:23:02;;;;;;;3.43;0.93;;;;;;;;;;5073548;28;20024;-56
2021/09/18 11:25:33;;;;;;;1.67;0.87;;;;;;;;;;5073955;28;20032;-56
2021/09/18 11:28:09;;;;;;;3.07;0.73;;;;;;;;;;5073462;28;20032;-56
2021/09/18 11:30:43;;;;;;;1.47;0.80;;;;;;;;;;5071887;28;20348;-56
2021/09/18 11:33:10;;;;;;;1.20;0.63;;;;;;;;;;5068479;28;20048;-56
2021/09/18 11:35:38;;;;;;;1.30;0.77;;;;;;;;;;5068037;28;20027;-56
2021/09/18 11:38:06;;;;;;;1.50;0.90;;;;;;;;;;5068261;28;20078;-56
2021/09/18 11:40:33;;;;;;;1.27;0.90;;;;;;;;;;5069517;28;20023;-56
2021/09/18 11:43:00;;;;;;;2.53;0.80;;;;;;;;;;5073235;28;20357;-56
2021/09/18 11:45:27;;;;;;;3.03;0.90;;;;;;;;;;5073298;28;20028;-56
2021/09/18 11:47:58;;;;;;;2.93;1.20;;;;;;;;;;5073547;28;20509;-56
2021/09/18 11:50:36;;;;;;;1.87;0.90;;;;;;;;;;5073322;28;20024;-56
2021/09/18 11:53:05;;;;;;;1.93;0.80;;;;;;;;;;5071149;28;20021;-56
2021/09/18 11:55:36;;;;;;;4.50;1.10;;;;;;;;;;5068132;28;20021;-56
2021/09/18 11:58:09;;;;;;;5.23;1.33;;;;;;;;;;5067868;28;20024;-56
2021/09/18 12:00:43;;;;;;;2.43;0.93;;;;;;;;;;5068038;28;20418;-56
2021/09/18 12:03:10;;;;;;;1.80;0.90;;;;;;;;;;5069796;28;20413;-56
2021/09/18 12:05:36;;;;;;;2.43;1.00;;;;;;;;;;5073177;28;20050;-56
2021/09/18 12:08:07;;;;;;;1.70;1.10;;;;;;;;;;5073131;28;20044;-56
2021/09/18 12:10:33;;;;;;;1.40;0.70;;;;;;;;;;5072933;28;20425;-56
2021/09/18 12:13:08;;;;;;;1.07;0.77;;;;;;;;;;5072902;28;20171;-56
2021/09/18 12:15:40;;;;;;;1.60;0.70;;;;;;;;;;5070349;28;20074;-56
2021/09/18 12:18:07;;;;;;;1.37;0.70;;;;;;;;;;5067629;28;20096;-56
2021/09/18 12:20:37;;;;;;;1.00;0.60;;;;;;;;;;5066583;28;20082;-56
2021/09/18 12:23:04;;;;;;;1.47;0.67;;;;;;;;;;5067396;28;20024;-57
2021/09/18 12:25:32;;;;;;;1.67;0.70;;;;;;;;;;5069459;28;20126;-56
2021/09/18 12:28:02;;;;;;;2.93;0.90;;;;;;;;;;5072657;28;20027;-56
2021/09/18 12:30:41;;;;;;;2.50;0.90;;;;;;;;;;5072750;28;20131;-56
2021/09/18 12:33:09;;;;;;;1.47;0.67;;;;;;;;;;5072356;28;20025;-56
2021/09/18 12:35:40;;;;;;;1.03;0.40;;;;;;;;;;5072705;28;20029;-56
2021/09/18 12:38:07;;;;;;;2.10;0.60;;;;;;;;;;5069396;28;20036;-56
2021/09/18 12:40:42;;;;;;;2.40;1.30;;;;;;;;;;5066664;28;20056;-56
2021/09/18 12:43:09;;;;;;;;;;;;;;;;;;5067684;28;20031;-56
2021/09/18 12:45:35;;;;;;;4.30;0.77;;;;;;;;;;5067300;28;19904;-56
2021/09/18 12:48:12;;;;;;;3.03;1.00;;;;;;;;;;5069350;28;20067;-56
2021/09/18 12:50:55;;;;;;;2.27;0.90;;;;;;;;;;5072298;28;20025;-56
2021/09/18 12:53:22;;;;;;;1.50;0.80;;;;;;;;;;5057660;28;20116;-56
2021/09/18 12:56:07;;;;;;;3.27;0.90;;;;;;;;;;5072425;28;20016;-56
2021/09/18 12:58:34;;;;;;;2.30;0.90;;;;;;;;;;5072226;28;20036;-56
2021/09/18 13:01:02;;;;;;;2.73;1.10;;;;;;;;;;5067561;28;20029;-56
2021/09/18 13:03:29;;;;;;;2.13;1.00;;;;;;;;;;5066736;28;20182;-56
2021/09/18 13:05:57;;;;;;;1.90;0.93;;;;;;;;;;5067078;28;20033;-56
2021/09/18 13:08:23;;;;;;;2.37;1.13;;;;;;;;;;5066821;28;20032;-57
2021/09/18 13:10:50;;;;;;;2.90;1.40;;;;;;;;;;5070732;28;20022;-56
2021/09/18 13:13:36;;;;;;;1.97;1.17;;;;;;;;;;5072016;28;20051;-56
2021/09/18 13:16:04;;;;;;;2.42;1.20;;;;;;;;;;5072098;28;20050;-56
2021/09/18 13:18:31;;;;;;;4.30;1.90;;;;;;;;;;5052123;28;20075;-56
2021/09/18 13:20:57;;;;;;;2.70;1.77;;;;;;;;;;5051829;28;20372;-56
2021/09/18 13:23:24;;;;;;;3.00;1.43;;;;;;;;;;5047288;28;20479;-58
2021/09/18 13:25:51;;;;;;;3.07;1.97;;;;;;;;;;5046755;28;20435;-58
2021/09/18 13:28:18;;;;;;;5.27;1.60;;;;;;;;;;5046888;28;20440;-58
2021/09/18 13:30:44;;;;;;;4.40;2.17;;;;;;;;;;5052216;28;20040;-58
2021/09/18 13:33:11;;;;;;;6.27;4.60;;;;;;;;;;5074490;28;20032;-58
2021/09/18 13:35:38;;;;;;;6.73;2.70;;;;;;;;;;5076094;28;20021;-58
2021/09/18 13:38:05;;;;;;;7.93;2.33;;;;;;;;;;5075669;28;20025;-58
2021/09/18 13:40:31;;;;;;;3.53;1.97;;;;;;;;;;5076115;28;20017;-58
2021/09/18 13:42:58;;;;;;;3.77;2.10;;;;;;;;;;5076076;28;20020;-58
2021/09/18 13:45:25;;;;;;;5.23;2.30;;;;;;;;;;5071468;28;20032;-58
2021/09/18 13:47:53;;;;;;;8.13;2.77;;;;;;;;;;5070489;28;20025;-58
2021/09/18 13:50:20;;;;;;;3.87;2.23;;;;;;;;;;5070298;28;20044;-58
2021/09/18 13:52:47;;;;;;;4.93;2.03;;;;;;;;;;5070263;28;20027;-58
2021/09/18 13:55:14;;;;;;;5.03;2.87;;;;;;;;;;5073818;28;20025;-58
2021/09/18 13:57:42;;;;;;;5.97;2.63;;;;;;;;;;5075555;28;20036;-58
2021/09/18 14:00:09;;;;;;;4.17;2.80;;;;;;;;;;5075447;28;20098;-58
2021/09/18 14:02:36;;;;;;;5.37;3.00;;;;;;;;;;5075454;28;20483;-58
2021/09/18 14:05:03;;;;;;;4.50;3.03;;;;;;;;;;5075536;28;20025;-58
2021/09/18 14:07:30;;;;;;;4.43;3.30;;;;;;;;;;5071272;28;20031;-58
2021/09/18 14:09:57;;;;;;;4.87;3.77;;;;;;;;;;5069857;28;20059;-58
2021/09/18 14:12:23;;;;;;;5.13;3.30;;;;;;;;;;5070074;28;20073;-58
2021/09/18 14:14:50;;;;;;;6.97;3.20;;;;;;;;;;5070118;28;20036;-58
2021/09/18 14:17:17;;;;;;;5.67;2.60;;;;;;;;;;5072962;28;20108;-58
2021/09/18 14:19:44;;;;;;;5.20;2.67;;;;;;;;;;5075007;28;20028;-59
2021/09/18 14:22:10;;;;;;;5.27;2.07;;;;;;;;;;5074914;28;20040;-58
2021/09/18 14:24:37;;;;;;;4.93;2.57;;;;;;;;;;5075142;28;20060;-58
2021/09/18 14:27:04;;;;;;;5.47;2.83;;;;;;;;;;5074771;28;20394;-58
2021/09/18 14:29:31;;;;;;;3.57;2.43;;;;;;;;;;5071588;28;20378;-58
2021/09/18 14:31:58;;;;;;;4.90;2.50;;;;;;;;;;5069130;28;20426;-58
2021/09/18 14:34:24;;;;;;;5.17;2.57;;;;;;;;;;5069776;28;20025;-58
2021/09/18 14:36:51;;;;;;;4.33;2.37;;;;;;;;;;5069764;28;20024;-59
2021/09/18 14:39:18;;;;;;;5.57;2.90;;;;;;;;;;5072533;28;20028;-58
2021/09/18 14:41:45;;;;;;;3.77;2.37;;;;;;;;;;5074962;28;20031;-59
2021/09/18 14:44:11;;;;;;;7.23;2.90;;;;;;;;;;5073373;28;20035;-59
2021/09/18 14:46:38;;;;;;;6.40;2.30;;;;;;;;;;5074964;28;20024;-59
2021/09/18 14:49:05;;;;;;;5.80;2.70;;;;;;;;;;5074517;28;20027;-58
2021/09/18 14:51:33;;;;;;;3.13;2.07;;;;;;;;;;5071960;28;20129;-58